Time;durP1;ratioP1;P1;durP2;ratioP2;P2;SDS_P1;SDS_P2;PMS_P1;PMS_P2;Temp;Humidity;BMP_temperature;BMP_pressure;BME280_temperature;BME280_humidity;BME280_pressure;Samples;Min_cycle;Max_cycle;Signal;HPM_P1;HPM_P2
2023/12/06 00:00:22;;;;;;;78.40;43.53;;;2.50;50.10;;;;;;5077219;28;20179;-88
2023/12/06 00:02:49;;;;;;;73.27;43.43;;;2.60;50.80;;;;;;5085514;28;20210;-88
2023/12/06 00:05:15;;;;;;;70.43;42.10;;;2.60;50.30;;;;;;5084274;28;20184;-88
2023/12/06 00:07:41;;;;;;;73.97;43.23;;;2.60;50.30;;;;;;5071637;28;20188;-88
2023/12/06 00:10:07;;;;;;;77.73;44.07;;;2.60;50.40;;;;;;5070416;28;20187;-87
2023/12/06 00:12:32;;;;;;;71.97;43.10;;;2.60;50.40;;;;;;5083657;28;20184;-88
2023/12/06 00:14:58;;;;;;;71.73;43.67;;;2.60;50.40;;;;;;5083445;28;20588;-89
2023/12/06 00:17:24;;;;;;;72.43;43.90;;;2.70;50.50;;;;;;5083937;28;20626;-89
2023/12/06 00:19:49;;;;;;;74.93;43.73;;;2.70;50.50;;;;;;5061847;28;20182;-89
2023/12/06 00:22:15;;;;;;;70.50;43.30;;;2.70;50.50;;;;;;5068312;28;20208;-89
2023/12/06 00:24:41;;;;;;;71.47;43.50;;;2.70;50.50;;;;;;5071610;28;20191;-88
2023/12/06 00:27:06;;;;;;;71.13;42.57;;;2.80;50.60;;;;;;5079950;28;20195;-90
2023/12/06 00:29:32;;;;;;;75.73;44.20;;;2.80;50.60;;;;;;5066474;28;20711;-88
2023/12/06 00:31:57;;;;;;;74.77;43.57;;;2.90;50.70;;;;;;5083102;28;20248;-88
2023/12/06 00:34:23;;;;;;;77.50;45.13;;;2.90;50.70;;;;;;5070367;28;20271;-88
2023/12/06 00:36:49;;;;;;;72.90;44.50;;;2.90;50.70;;;;;;5068803;28;20230;-88
2023/12/06 00:39:15;;;;;;;85.07;45.80;;;2.90;50.70;;;;;;5067386;28;20180;-88
2023/12/06 00:41:41;;;;;;;80.40;44.03;;;2.80;50.60;;;;;;5070478;28;20222;-88
2023/12/06 00:44:07;;;;;;;81.70;44.10;;;2.80;50.70;;;;;;5071579;28;20557;-89
2023/12/06 00:46:33;;;;;;;69.90;43.03;;;2.80;50.70;;;;;;5084868;28;20231;-88
2023/12/06 00:49:00;;;;;;;71.87;42.93;;;2.90;50.80;;;;;;5064333;28;20180;-88
2023/12/06 00:51:26;;;;;;;75.23;43.80;;;2.90;50.80;;;;;;5073528;28;20276;-89
2023/12/06 00:53:52;;;;;;;80.03;42.73;;;2.90;50.80;;;;;;5074041;28;20632;-89
2023/12/06 00:56:20;;;;;;;69.33;41.03;;;2.90;50.80;;;;;;5084355;28;20220;-89
2023/12/06 00:58:46;;;;;;;70.60;41.37;;;2.90;50.80;;;;;;5089771;28;20184;-87
2023/12/06 01:01:12;;;;;;;73.67;44.13;;;2.90;50.80;;;;;;5083321;28;20199;-88
2023/12/06 01:03:40;;;;;;;77.57;42.60;;;3.00;51.00;;;;;;5089264;28;20575;-89
2023/12/06 01:06:06;;;;;;;69.50;42.23;;;3.00;51.50;;;;;;5072154;28;20185;-89
2023/12/06 01:08:32;;;;;;;75.53;42.37;;;3.00;51.00;;;;;;5081476;28;20539;-89
2023/12/06 01:10:57;;;;;;;74.40;42.47;;;3.00;51.00;;;;;;5058144;28;20181;-88
2023/12/06 01:13:24;;;;;;;72.90;42.40;;;3.10;51.00;;;;;;5088731;28;20184;-87
2023/12/06 01:15:50;;;;;;;76.13;41.53;;;3.00;51.40;;;;;;5087034;28;20187;-88
2023/12/06 01:18:15;;;;;;;69.53;42.27;;;2.90;50.80;;;;;;5073389;28;20184;-88
2023/12/06 01:20:41;;;;;;;76.53;42.70;;;2.90;50.90;;;;;;5073880;28;20238;-89
2023/12/06 01:23:07;;;;;;;74.30;41.30;;;3.00;51.00;;;;;;5085069;28;20215;-88
2023/12/06 01:25:33;;;;;;;76.07;41.93;;;3.00;51.10;;;;;;5086650;28;20241;-88
2023/12/06 01:27:59;;;;;;;72.37;42.03;;;2.90;51.10;;;;;;5090987;28;20218;-90
2023/12/06 01:30:25;;;;;;;72.17;41.40;;;3.00;51.20;;;;;;5059161;28;20271;-88
2023/12/06 01:32:50;;;;;;;73.47;42.87;;;3.10;51.30;;;;;;5080390;28;20278;-89
2023/12/06 01:35:16;;;;;;;75.17;42.37;;;3.10;51.30;;;;;;5090166;28;20214;-89
2023/12/06 01:37:42;;;;;;;72.20;42.93;;;3.10;51.30;;;;;;5087029;28;20619;-88
2023/12/06 01:40:08;;;;;;;72.33;42.13;;;3.10;51.30;;;;;;5088002;28;20176;-89
2023/12/06 01:42:35;;;;;;;76.43;43.33;;;3.00;51.30;;;;;;5071683;28;20199;-89
2023/12/06 01:45:01;;;;;;;70.17;41.90;;;3.00;51.30;;;;;;5072843;28;20188;-88
2023/12/06 01:47:27;;;;;;;78.27;43.30;;;3.10;51.40;;;;;;5087334;28;20190;-88
2023/12/06 01:49:55;;;;;;;67.63;40.87;;;3.10;51.30;;;;;;5085735;28;20181;-89
2023/12/06 01:52:21;;;;;;;71.23;40.40;;;3.00;51.30;;;;;;5088078;28;20176;-88
2023/12/06 01:54:47;;;;;;;65.53;39.53;;;3.10;51.30;;;;;;5089611;28;20181;-88
2023/12/06 01:57:13;;;;;;;67.73;39.67;;;3.10;51.40;;;;;;5075750;28;20216;-89
2023/12/06 01:59:40;;;;;;;64.10;38.93;;;3.10;51.40;;;;;;5063915;28;20551;-88
2023/12/06 02:02:06;;;;;;;71.40;40.90;;;3.10;51.40;;;;;;5070221;28;20207;-90
2023/12/06 02:04:33;;;;;;;67.60;39.33;;;3.10;51.30;;;;;;5061292;28;20183;-89
2023/12/06 02:06:59;;;;;;;68.17;40.17;;;3.20;51.50;;;;;;5066726;28;20187;-88
2023/12/06 02:09:26;;;;;;;67.80;40.37;;;3.10;51.40;;;;;;5064108;28;20206;-89
2023/12/06 02:11:53;;;;;;;66.57;40.40;;;3.10;51.50;;;;;;5062993;28;20279;-90
2023/12/06 02:14:19;;;;;;;68.37;41.33;;;3.00;51.50;;;;;;5087118;28;20188;-88
2023/12/06 02:16:46;;;;;;;65.57;39.07;;;3.10;51.60;;;;;;5071549;28;20188;-89
2023/12/06 02:19:18;;;;;;;64.43;38.17;;;3.20;51.70;;;;;;5090653;28;20220;-88
2023/12/06 02:21:46;;;;;;;65.20;38.53;;;3.10;51.60;;;;;;5071937;28;20281;-89
2023/12/06 02:24:13;;;;;;;62.03;37.60;;;3.20;51.60;;;;;;5072771;28;20263;-89
2023/12/06 02:26:39;;;;;;;63.70;39.20;;;3.10;51.60;;;;;;5072218;28;20194;-87
2023/12/06 02:29:04;;;;;;;67.67;39.97;;;3.20;51.60;;;;;;5069156;28;20544;-89
2023/12/06 02:31:30;;;;;;;65.57;37.47;;;3.20;51.60;;;;;;5070265;28;20530;-88
2023/12/06 02:34:01;;;;;;;70.23;39.63;;;3.20;51.60;;;;;;5088339;28;20225;-88
2023/12/06 02:36:29;;;;;;;67.17;39.03;;;3.20;51.60;;;;;;5072585;28;20216;-88
2023/12/06 02:38:55;;;;;;;62.83;38.30;;;3.20;51.60;;;;;;5059745;28;20179;-89
2023/12/06 02:41:22;;;;;;;66.20;38.20;;;3.20;51.60;;;;;;5069426;28;20211;-88
2023/12/06 02:43:48;;;;;;;61.77;37.97;;;3.30;51.80;;;;;;5068948;28;20304;-88
2023/12/06 02:46:13;;;;;;;68.70;39.20;;;3.20;51.60;;;;;;5089584;28;20177;-89
2023/12/06 02:48:40;;;;;;;62.03;36.43;;;3.30;51.70;;;;;;5058483;28;20193;-88
2023/12/06 02:51:06;;;;;;;65.43;37.93;;;3.30;51.70;;;;;;5061217;28;20241;-89
2023/12/06 02:53:31;;;;;;;64.77;37.17;;;3.20;51.60;;;;;;5069389;28;20192;-88
2023/12/06 02:55:57;;;;;;;63.03;37.83;;;3.20;51.70;;;;;;5063555;28;20227;-88
2023/12/06 02:58:22;;;;;;;65.43;39.50;;;3.20;51.70;;;;;;5071593;28;20198;-88
2023/12/06 03:00:48;;;;;;;65.90;36.97;;;3.30;51.80;;;;;;5067174;28;20191;-88
2023/12/06 03:03:14;;;;;;;69.07;39.37;;;3.30;51.80;;;;;;5060209;28;20830;-88
2023/12/06 03:05:39;;;;;;;68.47;37.53;;;3.20;51.60;;;;;;5057929;28;20203;-88
2023/12/06 03:08:05;;;;;;;59.13;37.73;;;3.20;51.60;;;;;;5080313;28;20177;-88
2023/12/06 03:10:31;;;;;;;65.43;37.87;;;3.20;51.80;;;;;;5068019;28;20175;-89
2023/12/06 03:12:56;;;;;;;59.23;36.43;;;3.20;52.30;;;;;;5070798;28;20184;-88
2023/12/06 03:15:22;;;;;;;65.63;38.63;;;3.20;51.80;;;;;;5070648;28;20190;-88
2023/12/06 03:17:48;;;;;;;60.27;37.10;;;3.30;51.90;;;;;;5088264;28;20188;-88
2023/12/06 03:20:13;;;;;;;56.93;35.40;;;3.20;51.80;;;;;;5071319;28;20188;-87
2023/12/06 03:22:39;;;;;;;63.67;37.87;;;3.30;51.80;;;;;;5076501;28;20211;-88
2023/12/06 03:25:05;;;;;;;63.13;36.63;;;3.30;51.80;;;;;;5072560;28;20212;-89
2023/12/06 03:27:31;;;;;;;64.13;36.63;;;3.30;51.80;;;;;;5079395;28;20180;-88
2023/12/06 03:29:56;;;;;;;72.80;38.93;;;3.40;51.90;;;;;;5060439;28;20192;-88
2023/12/06 03:32:24;;;;;;;63.23;38.90;;;3.30;51.80;;;;;;5064379;28;20177;-89
2023/12/06 03:34:50;;;;;;;66.93;39.27;;;3.40;51.90;;;;;;5060845;28;20253;-88
2023/12/06 03:37:16;;;;;;;59.43;35.87;;;3.30;51.80;;;;;;5075271;28;20637;-87
2023/12/06 03:39:41;;;;;;;63.33;36.87;;;3.30;51.90;;;;;;5067914;28;20647;-89
2023/12/06 03:42:14;;;;;;;63.03;35.43;;;3.30;51.90;;;;;;5066860;28;20289;-88
2023/12/06 03:44:40;;;;;;;61.23;37.93;;;3.30;51.80;;;;;;5071737;28;20708;-88
2023/12/06 03:47:05;;;;;;;68.97;37.47;;;3.20;51.80;;;;;;5070109;28;20291;-88
2023/12/06 03:49:31;;;;;;;65.30;37.40;;;3.20;51.80;;;;;;5088557;28;20671;-89
2023/12/06 03:51:57;;;;;;;60.87;35.07;;;3.20;51.90;;;;;;5071254;28;20180;-88
2023/12/06 03:54:22;;;;;;;58.80;36.67;;;3.10;51.80;;;;;;5068242;28;20263;-88
2023/12/06 03:56:48;;;;;;;60.40;35.40;;;3.20;52.00;;;;;;5067774;28;20223;-88
2023/12/06 03:59:14;;;;;;;55.53;35.60;;;3.20;52.10;;;;;;5072038;28;20187;-89
2023/12/06 04:01:46;;;;;;;58.37;35.87;;;3.10;52.00;;;;;;5087753;28;20210;-88
2023/12/06 04:04:12;;;;;;;62.90;36.10;;;3.10;52.00;;;;;;5070616;28;20185;-89
2023/12/06 04:06:38;;;;;;;56.67;34.80;;;3.10;52.00;;;;;;5068311;28;20276;-89
2023/12/06 04:09:04;;;;;;;62.97;34.97;;;3.20;52.20;;;;;;5071262;28;20276;-88
2023/12/06 04:11:30;;;;;;;65.90;37.23;;;3.20;52.10;;;;;;5069672;28;20184;-89
2023/12/06 04:13:56;;;;;;;63.03;36.93;;;3.10;52.00;;;;;;5067951;28;20234;-88
2023/12/06 04:16:22;;;;;;;57.00;35.93;;;3.10;52.10;;;;;;5085979;28;20180;-88
2023/12/06 04:18:48;;;;;;;60.97;36.90;;;3.20;52.20;;;;;;5065855;28;20172;-89
2023/12/06 04:21:14;;;;;;;55.43;34.00;;;3.20;52.10;;;;;;5071414;28;20223;-88
2023/12/06 04:23:39;;;;;;;57.97;35.50;;;3.20;52.20;;;;;;5066034;28;20190;-88
2023/12/06 04:26:05;;;;;;;61.73;36.50;;;3.10;52.00;;;;;;5058372;28;20177;-88
2023/12/06 04:28:30;;;;;;;54.23;33.70;;;3.10;52.10;;;;;;5087457;28;20221;-87
2023/12/06 04:30:56;;;;;;;62.43;36.40;;;3.10;52.20;;;;;;5074384;28;20192;-88
2023/12/06 04:33:22;;;;;;;59.90;35.53;;;3.00;52.20;;;;;;5075276;28;20183;-90
2023/12/06 04:35:47;;;;;;;55.27;33.87;;;3.20;52.30;;;;;;5087035;28;20637;-88
2023/12/06 04:38:13;;;;;;;63.53;37.07;;;3.10;52.20;;;;;;5070866;28;20194;-89
2023/12/06 04:40:44;;;;;;;60.23;35.20;;;3.20;52.30;;;;;;5090721;28;20233;-89
2023/12/06 04:43:09;;;;;;;53.83;34.77;;;3.10;52.20;;;;;;5072064;28;20188;-88
2023/12/06 04:45:35;;;;;;;57.13;34.27;;;3.20;52.30;;;;;;5069943;28;20259;-89
2023/12/06 04:48:00;;;;;;;57.93;34.03;;;3.20;52.30;;;;;;5088547;28;20242;-88
2023/12/06 04:50:26;;;;;;;52.47;31.43;;;3.20;52.20;;;;;;5074923;28;20177;-88
2023/12/06 04:52:52;;;;;;;52.40;31.83;;;3.30;52.20;;;;;;5084231;28;20184;-88
2023/12/06 04:55:17;;;;;;;51.47;32.33;;;3.30;52.10;;;;;;5084918;28;20184;-88
2023/12/06 04:57:43;;;;;;;51.20;32.50;;;3.30;52.10;;;;;;5073073;28;20181;-88
2023/12/06 05:00:09;;;;;;;48.33;31.00;;;3.30;52.00;;;;;;5073528;28;20183;-88
2023/12/06 05:02:35;;;;;;;48.20;30.70;;;3.30;52.00;;;;;;5088365;28;20248;-89
2023/12/06 05:05:01;;;;;;;52.70;31.63;;;3.30;52.00;;;;;;5058382;28;20200;-87
2023/12/06 05:07:27;;;;;;;50.50;31.77;;;3.30;51.90;;;;;;5073216;28;20199;-89
2023/12/06 05:09:53;;;;;;;49.73;31.03;;;3.40;52.00;;;;;;5073872;28;20551;-88
2023/12/06 05:12:18;;;;;;;52.37;32.60;;;3.20;51.80;;;;;;5082838;28;20223;-88
2023/12/06 05:14:44;;;;;;;48.40;30.37;;;3.30;51.90;;;;;;5067116;28;20193;-88
2023/12/06 05:17:10;;;;;;;47.80;30.47;;;3.10;51.80;;;;;;5085661;28;20257;-87
2023/12/06 05:19:36;;;;;;;47.07;29.37;;;3.10;51.90;;;;;;5083943;28;20180;-87
2023/12/06 05:22:02;;;;;;;41.33;27.63;;;3.20;52.00;;;;;;5070429;28;20204;-89
2023/12/06 05:24:28;;;;;;;47.37;29.37;;;3.10;51.90;;;;;;5066970;28;20631;-88
2023/12/06 05:26:53;;;;;;;46.77;29.07;;;3.30;52.10;;;;;;5067712;28;20181;-88
2023/12/06 05:29:19;;;;;;;45.57;29.30;;;3.20;52.00;;;;;;5087424;28;20256;-88
2023/12/06 05:31:45;;;;;;;45.33;28.20;;;3.30;52.20;;;;;;5089531;28;20632;-88
2023/12/06 05:34:10;;;;;;;47.17;30.67;;;3.10;52.00;;;;;;5071891;28;20597;-89
2023/12/06 05:36:36;;;;;;;46.87;30.03;;;3.10;52.00;;;;;;5068195;28;20626;-88
2023/12/06 05:39:05;;;;;;;45.63;30.57;;;3.10;52.00;;;;;;5073251;28;20188;-89
2023/12/06 05:41:31;;;;;;;48.93;30.40;;;3.10;52.00;;;;;;5071844;28;20208;-89
2023/12/06 05:43:57;;;;;;;47.97;31.43;;;3.10;52.10;;;;;;5071585;28;20188;-88
2023/12/06 05:46:22;;;;;;;48.80;29.67;;;3.20;52.10;;;;;;5089000;28;20180;-88
2023/12/06 05:48:49;;;;;;;49.40;31.23;;;3.10;52.10;;;;;;5086902;28;20238;-89
2023/12/06 05:51:14;;;;;;;46.00;29.67;;;3.10;52.10;;;;;;5072317;28;20185;-88
2023/12/06 05:53:40;;;;;;;46.60;28.77;;;3.20;52.10;;;;;;5067958;28;20278;-89
2023/12/06 05:56:06;;;;;;;47.33;29.57;;;3.10;52.20;;;;;;5067751;28;20269;-89
2023/12/06 05:58:32;;;;;;;48.10;30.60;;;3.20;52.20;;;;;;5074040;28;20195;-89
2023/12/06 06:00:58;;;;;;;47.53;32.33;;;3.40;52.40;;;;;;5059037;28;20224;-88
2023/12/06 06:03:24;;;;;;;44.77;29.73;;;3.20;52.10;;;;;;5055306;28;20188;-87
2023/12/06 06:05:49;;;;;;;50.93;30.30;;;3.20;52.10;;;;;;5078584;28;20231;-89
2023/12/06 06:08:15;;;;;;;46.80;30.40;;;3.30;52.20;;;;;;5084320;28;20200;-89
2023/12/06 06:10:41;;;;;;;43.50;29.80;;;3.20;52.20;;;;;;5062394;28;20642;-88
2023/12/06 06:13:06;;;;;;;46.37;29.10;;;3.30;52.30;;;;;;5062745;28;20184;-88
2023/12/06 06:15:32;;;;;;;49.73;30.83;;;3.30;52.20;;;;;;5066019;28;20550;-89
2023/12/06 06:17:58;;;;;;;44.13;29.00;;;3.50;52.30;;;;;;5079366;28;20712;-87
2023/12/06 06:20:23;;;;;;;49.77;30.90;;;3.30;52.00;;;;;;5082741;28;20262;-87
2023/12/06 06:22:49;;;;;;;46.23;29.67;;;3.40;52.00;;;;;;5067265;28;20220;-93
2023/12/06 06:25:14;;;;;;;46.07;31.07;;;3.30;51.90;;;;;;5068652;28;20196;-88
2023/12/06 06:27:40;;;;;;;47.97;29.43;;;3.40;52.00;;;;;;5065126;28;20184;-89
2023/12/06 06:30:06;;;;;;;46.80;30.63;;;3.30;52.00;;;;;;5063262;28;20182;-88
2023/12/06 06:32:32;;;;;;;47.93;30.23;;;3.40;52.10;;;;;;5066031;28;20243;-88
2023/12/06 06:34:58;;;;;;;48.03;30.13;;;3.40;52.10;;;;;;5062312;28;20271;-87
2023/12/06 06:37:24;;;;;;;48.20;30.93;;;3.40;52.10;;;;;;5059169;28;20187;-88
2023/12/06 06:39:49;;;;;;;44.70;30.23;;;3.40;52.10;;;;;;5059705;28;20325;-88
2023/12/06 06:42:15;;;;;;;46.27;30.43;;;3.50;52.10;;;;;;5060127;28;20303;-87
2023/12/06 06:44:41;;;;;;;52.10;31.27;;;3.40;52.00;;;;;;5065669;28;20229;-88
2023/12/06 06:47:06;;;;;;;49.90;31.63;;;3.40;52.00;;;;;;5064110;28;20333;-87
2023/12/06 06:49:32;;;;;;;51.67;31.27;;;3.50;52.10;;;;;;5060198;28;20529;-88
2023/12/06 06:51:58;;;;;;;50.10;31.77;;;3.50;52.10;;;;;;5062263;28;20187;-88
2023/12/06 06:54:24;;;;;;;50.33;29.67;;;3.40;52.10;;;;;;5063518;28;20200;-87
2023/12/06 06:56:50;;;;;;;49.47;31.37;;;3.50;52.20;;;;;;5074821;28;20224;-87
2023/12/06 06:59:15;;;;;;;47.57;29.93;;;3.50;52.20;;;;;;5073911;28;20198;-87
2023/12/06 07:01:41;;;;;;;50.67;30.87;;;3.60;52.20;;;;;;5064728;28;20215;-87
2023/12/06 07:04:07;;;;;;;50.00;31.10;;;3.50;52.10;;;;;;5059108;28;20267;-86
2023/12/06 07:06:32;;;;;;;47.83;31.00;;;3.60;52.20;;;;;;5063630;28;21003;-87
2023/12/06 07:08:58;;;;;;;47.43;30.47;;;3.60;52.10;;;;;;5082197;28;20318;-86
2023/12/06 07:11:24;;;;;;;40.77;28.23;;;3.70;52.10;;;;;;5059066;28;20180;-88
2023/12/06 07:13:49;;;;;;;44.27;29.33;;;3.50;52.00;;;;;;5061020;28;20197;-88
2023/12/06 07:16:16;;;;;;;48.63;31.40;;;3.50;52.00;;;;;;5059623;28;20654;-86
2023/12/06 07:18:42;;;;;;;43.93;30.37;;;3.50;52.00;;;;;;5055493;28;20268;-87
2023/12/06 07:21:08;;;;;;;44.23;28.90;;;3.60;52.20;;;;;;5086287;28;20304;-87
2023/12/06 07:23:34;;;;;;;47.70;30.20;;;3.60;52.20;;;;;;5065640;28;20207;-87
2023/12/06 07:26:00;;;;;;;49.43;31.80;;;3.50;52.00;;;;;;5081700;28;20636;-88
2023/12/06 07:28:26;;;;;;;52.23;31.03;;;3.70;52.30;;;;;;5084794;28;20185;-86
2023/12/06 07:30:51;;;;;;;46.30;29.77;;;3.50;52.10;;;;;;5085035;28;20235;-87
2023/12/06 07:33:17;;;;;;;45.93;30.57;;;3.50;52.10;;;;;;5054500;28;20181;-87
2023/12/06 07:35:43;;;;;;;46.30;30.17;;;3.60;52.20;;;;;;5070684;28;20629;-87
2023/12/06 07:38:10;;;;;;;48.60;31.37;;;3.60;52.20;;;;;;5081960;28;20181;-87
2023/12/06 07:40:36;;;;;;;47.90;30.93;;;3.60;52.20;;;;;;5081246;28;20180;-87
2023/12/06 07:43:02;;;;;;;50.93;32.03;;;3.50;52.10;;;;;;5081060;28;20219;-87
2023/12/06 07:45:27;;;;;;;47.43;30.97;;;3.70;52.40;;;;;;5066072;28;20180;-87
2023/12/06 07:47:53;;;;;;;48.30;32.13;;;3.60;52.30;;;;;;5079836;28;20190;-85
2023/12/06 07:50:21;;;;;;;49.47;31.70;;;3.60;52.20;;;;;;5055597;28;20179;-87
2023/12/06 07:52:49;;;;;;;54.30;31.63;;;3.70;52.20;;;;;;5055593;28;20189;-87
2023/12/06 07:55:16;;;;;;;48.77;31.53;;;3.70;52.30;;;;;;5058864;28;20238;-87
2023/12/06 07:57:42;;;;;;;47.73;30.77;;;3.70;52.70;;;;;;5076714;28;20259;-87
2023/12/06 08:00:11;;;;;;;46.57;31.33;;;3.80;52.30;;;;;;5055604;28;20194;-87
2023/12/06 08:02:39;;;;;;;49.87;32.47;;;3.70;52.20;;;;;;5057924;28;20325;-88
2023/12/06 08:05:06;;;;;;;48.10;32.07;;;3.80;52.20;;;;;;5063945;28;20192;-87
2023/12/06 08:07:32;;;;;;;48.70;31.97;;;3.80;52.30;;;;;;5058067;28;20188;-87
2023/12/06 08:09:58;;;;;;;47.23;32.63;;;3.90;52.30;;;;;;5054334;28;20185;-86
2023/12/06 08:12:23;;;;;;;49.07;31.80;;;3.90;52.30;;;;;;5066476;28;20189;-87
2023/12/06 08:14:49;;;;;;;50.80;32.40;;;3.90;52.30;;;;;;5050735;28;20965;-86
2023/12/06 08:17:15;;;;;;;48.03;31.13;;;3.90;52.30;;;;;;5051587;28;20709;-87
2023/12/06 08:19:40;;;;;;;48.30;31.67;;;3.90;52.20;;;;;;5053007;28;20270;-86
2023/12/06 08:22:06;;;;;;;51.03;32.27;;;3.80;52.10;;;;;;5053217;28;20872;-86
2023/12/06 08:24:33;;;;;;;48.47;31.83;;;3.80;52.20;;;;;;5051026;28;20185;-87
2023/12/06 08:26:58;;;;;;;50.60;31.60;;;3.80;52.20;;;;;;5052902;28;20300;-87
2023/12/06 08:29:25;;;;;;;43.73;30.83;;;3.80;52.20;;;;;;5054780;28;21425;-86
2023/12/06 08:31:50;;;;;;;46.37;30.73;;;4.00;52.30;;;;;;5054495;28;20656;-87
2023/12/06 08:34:16;;;;;;;47.60;31.30;;;3.80;52.10;;;;;;5055855;28;20196;-87
2023/12/06 08:36:42;;;;;;;49.60;33.20;;;3.90;52.10;;;;;;5047255;28;20192;-86
2023/12/06 08:39:07;;;;;;;53.60;33.57;;;3.80;52.00;;;;;;5052110;28;20886;-87
2023/12/06 08:41:33;;;;;;;50.17;32.97;;;3.80;52.00;;;;;;5046989;28;20212;-87
2023/12/06 08:43:58;;;;;;;50.27;33.73;;;3.80;51.90;;;;;;5055347;28;20209;-86
2023/12/06 08:46:24;;;;;;;45.97;31.47;;;3.80;52.00;;;;;;5053149;28;20973;-86
2023/12/06 08:48:51;;;;;;;47.47;30.93;;;3.80;52.00;;;;;;5055397;28;20200;-88
2023/12/06 08:51:18;;;;;;;48.00;31.47;;;3.80;51.90;;;;;;5058074;28;20564;-87
2023/12/06 08:53:46;;;;;;;52.73;32.37;;;3.70;51.90;;;;;;5051475;28;20188;-86
2023/12/06 08:56:13;;;;;;;49.03;31.90;;;3.70;51.90;;;;;;5061250;28;20221;-87
2023/12/06 08:58:40;;;;;;;49.47;31.20;;;3.70;52.00;;;;;;5059434;28;20192;-87
2023/12/06 09:01:07;;;;;;;52.13;31.43;;;3.70;52.00;;;;;;5055596;28;20231;-87
2023/12/06 09:03:34;;;;;;;52.27;33.27;;;3.70;52.10;;;;;;5054489;28;20880;-86
2023/12/06 09:06:01;;;;;;;48.53;32.60;;;3.70;52.00;;;;;;5048398;28;20170;-87
2023/12/06 09:08:27;;;;;;;55.07;33.00;;;3.70;52.00;;;;;;5070013;28;20181;-87
2023/12/06 09:10:52;;;;;;;48.23;32.03;;;3.70;52.00;;;;;;5051096;28;20659;-87
2023/12/06 09:13:19;;;;;;;55.13;32.83;;;3.80;52.10;;;;;;5045756;28;20952;-86
2023/12/06 09:15:45;;;;;;;52.67;34.17;;;3.80;52.10;;;;;;5043292;28;20270;-86
2023/12/06 09:18:10;;;;;;;51.00;33.27;;;3.80;52.00;;;;;;5049565;28;20237;-86
2023/12/06 09:20:36;;;;;;;57.10;33.83;;;3.90;52.00;;;;;;5067084;28;20208;-88
2023/12/06 09:23:02;;;;;;;54.40;32.50;;;3.80;51.80;;;;;;5041366;28;20213;-88
2023/12/06 09:25:28;;;;;;;54.83;34.00;;;3.80;51.90;;;;;;5052011;28;20201;-88
2023/12/06 09:27:53;;;;;;;51.33;33.97;;;3.80;51.90;;;;;;5048575;28;20198;-88
2023/12/06 09:30:19;;;;;;;53.70;33.60;;;3.80;51.80;;;;;;5052719;28;20231;-88
2023/12/06 09:32:45;;;;;;;52.10;33.13;;;3.70;51.80;;;;;;5049817;28;20746;-88
2023/12/06 09:35:11;;;;;;;52.13;33.20;;;3.70;51.80;;;;;;5054624;28;20207;-88
2023/12/06 09:37:37;;;;;;;57.40;35.20;;;3.70;51.80;;;;;;5054352;28;20180;-88
2023/12/06 09:40:04;;;;;;;54.73;34.50;;;3.70;51.70;;;;;;5054996;28;20509;-88
2023/12/06 09:42:32;;;;;;;50.43;32.90;;;3.60;51.70;;;;;;5075006;28;20239;-88
2023/12/06 09:44:57;;;;;;;50.40;31.97;;;3.60;51.90;;;;;;5055365;28;20222;-88
2023/12/06 09:47:24;;;;;;;50.13;30.90;;;3.60;51.80;;;;;;5059891;28;20560;-88
2023/12/06 09:49:50;;;;;;;51.60;33.07;;;3.60;51.80;;;;;;5061253;28;20185;-88
2023/12/06 09:52:24;;;;;;;57.13;33.73;;;3.70;51.90;;;;;;5061740;28;20542;-87
2023/12/06 09:54:50;;;;;;;58.50;34.60;;;3.60;51.90;;;;;;5065159;28;20549;-88
2023/12/06 09:57:16;;;;;;;53.67;33.83;;;3.70;52.00;;;;;;5064864;28;20687;-89
2023/12/06 09:59:42;;;;;;;52.37;34.07;;;3.70;52.00;;;;;;5057912;28;20196;-89
2023/12/06 10:02:08;;;;;;;56.30;34.90;;;3.70;52.00;;;;;;5057195;28;20209;-92
2023/12/06 10:04:34;;;;;;;57.30;34.67;;;3.80;52.00;;;;;;5065985;28;20187;-89
2023/12/06 10:07:00;;;;;;;55.67;33.03;;;3.80;52.00;;;;;;5062508;28;20191;-89
2023/12/06 10:09:26;;;;;;;52.07;32.80;;;3.80;51.90;;;;;;5059539;28;20181;-88
2023/12/06 10:11:52;;;;;;;49.73;31.87;;;3.70;51.70;;;;;;5059380;28;20193;-88
2023/12/06 10:14:19;;;;;;;49.33;31.43;;;3.80;51.90;;;;;;5054434;28;20204;-88
2023/12/06 10:16:46;;;;;;;50.77;29.93;;;3.80;51.90;;;;;;5066986;28;20195;-88
2023/12/06 10:19:19;;;;;;;48.93;30.00;;;3.80;51.90;;;;;;5063229;28;20589;-88
2023/12/06 10:21:50;;;;;;;54.97;32.27;;;3.90;51.80;;;;;;5059411;28;20220;-88
2023/12/06 10:24:15;;;;;;;52.47;32.57;;;3.90;51.70;;;;;;5057027;28;20182;-88
2023/12/06 10:26:41;;;;;;;55.67;31.87;;;3.80;51.50;;;;;;5067697;28;20683;-88
2023/12/06 10:29:07;;;;;;;55.13;33.93;;;3.90;51.60;;;;;;5062344;28;20356;-89
2023/12/06 10:31:45;;;;;;;54.60;34.50;;;3.90;51.50;;;;;;5069210;28;20606;-89
2023/12/06 10:34:11;;;;;;;56.77;35.13;;;3.80;51.50;;;;;;5076583;28;20239;-89
2023/12/06 10:36:37;;;;;;;61.70;37.73;;;3.80;51.50;;;;;;5076276;28;20193;-89
2023/12/06 10:39:14;;;;;;;53.17;34.23;;;3.80;51.60;;;;;;5056905;28;20259;-85
2023/12/06 10:41:47;;;;;;;52.73;32.77;;;3.80;51.60;;;;;;5056527;28;20694;-87
2023/12/06 10:44:12;;;;;;;55.03;32.77;;;3.80;51.60;;;;;;5065941;28;20189;-87
2023/12/06 10:46:39;;;;;;;51.37;33.50;;;3.80;51.50;;;;;;5079108;28;20188;-85
2023/12/06 10:49:07;;;;;;;56.23;33.23;;;3.90;51.60;;;;;;5055235;28;20212;-86
2023/12/06 10:51:35;;;;;;;52.63;32.77;;;3.80;51.50;;;;;;5053705;28;20185;-87
2023/12/06 10:54:01;;;;;;;50.83;33.07;;;3.80;51.60;;;;;;5055129;28;20625;-86
2023/12/06 10:56:28;;;;;;;50.93;32.53;;;3.80;51.70;;;;;;5052497;28;20327;-87
2023/12/06 10:58:59;;;;;;;54.47;32.60;;;3.90;51.80;;;;;;5059405;28;20191;-89
2023/12/06 11:01:25;;;;;;;46.97;31.10;;;3.80;51.60;;;;;;5060328;28;20220;-88
2023/12/06 11:03:52;;;;;;;49.53;31.10;;;3.90;51.70;;;;;;5058928;28;20188;-90
2023/12/06 11:06:43;;;;;;;47.90;30.53;;;3.90;51.60;;;;;;5066450;28;20205;-89
2023/12/06 11:09:26;;;;;;;50.50;31.07;;;3.90;51.60;;;;;;5072706;28;20639;-90
2023/12/06 11:12:00;;;;;;;51.97;32.33;;;3.80;51.40;;;;;;5057608;28;20188;-89
2023/12/06 11:14:37;;;;;;;51.13;30.73;;;3.80;51.40;;;;;;5058531;28;20222;-87
2023/12/06 11:17:15;;;;;;;52.43;30.87;;;3.80;51.40;;;;;;5057386;28;20192;-90
2023/12/06 11:19:41;;;;;;;50.23;30.13;;;3.80;51.40;;;;;;5060198;28;20199;-90
2023/12/06 11:22:07;;;;;;;53.13;31.70;;;4.00;51.60;;;;;;5061221;28;20204;-88
2023/12/06 11:24:35;;;;;;;47.00;30.97;;;3.80;51.40;;;;;;5056435;28;20641;-90
2023/12/06 11:27:01;;;;;;;49.00;29.17;;;3.90;51.50;;;;;;5062543;28;20312;-89
2023/12/06 11:29:30;;;;;;;48.83;29.70;;;3.80;51.50;;;;;;5076490;28;20283;-88
2023/12/06 11:32:00;;;;;;;43.83;28.80;;;3.90;51.50;;;;;;5058808;28;20184;-90
2023/12/06 11:34:34;;;;;;;50.50;30.93;;;3.90;51.40;;;;;;5052124;28;20180;-92
2023/12/06 11:37:03;;;;;;;53.30;30.97;;;3.90;51.40;;;;;;5057509;28;20188;-88
2023/12/06 11:39:29;;;;;;;47.50;29.17;;;3.90;51.40;;;;;;5078375;28;20180;-90
2023/12/06 11:41:55;;;;;;;47.33;30.27;;;3.80;51.30;;;;;;5063192;28;20203;-90
2023/12/06 11:44:21;;;;;;;48.20;30.40;;;3.80;51.40;;;;;;5058757;28;20195;-88
2023/12/06 11:46:51;;;;;;;51.87;31.07;;;3.80;51.40;;;;;;5060168;28;20188;-92
2023/12/06 11:49:21;;;;;;;49.17;30.57;;;3.90;51.50;;;;;;5071526;28;20195;-89
2023/12/06 11:51:58;;;;;;;51.83;31.20;;;4.00;51.50;;;;;;5056060;28;20199;-91
2023/12/06 11:54:25;;;;;;;50.70;31.67;;;3.80;51.20;;;;;;5065365;28;20296;-90
2023/12/06 11:56:51;;;;;;;46.87;30.20;;;3.90;51.30;;;;;;5053960;28;20319;-88
2023/12/06 11:59:17;;;;;;;51.63;31.37;;;3.90;51.40;;;;;;5059768;28;20325;-89
2023/12/06 12:01:44;;;;;;;49.93;31.37;;;3.80;51.40;;;;;;5059315;28;20308;-90
2023/12/06 12:04:09;;;;;;;48.20;29.43;;;3.90;51.40;;;;;;5076007;28;20199;-89
2023/12/06 12:06:35;;;;;;;50.60;30.00;;;3.80;51.40;;;;;;5060878;28;20188;-89
2023/12/06 12:09:01;;;;;;;47.60;28.57;;;3.80;51.30;;;;;;5060912;28;20184;-88
2023/12/06 12:11:28;;;;;;;47.43;28.60;;;3.80;51.30;;;;;;5054050;28;20639;-89
2023/12/06 12:13:53;;;;;;;48.13;29.43;;;3.90;51.50;;;;;;5057560;28;20228;-89
2023/12/06 12:16:21;;;;;;;44.27;29.10;;;3.90;51.50;;;;;;5053230;28;20726;-89
2023/12/06 12:18:46;;;;;;;47.43;29.83;;;3.90;51.40;;;;;;5058767;28;20649;-91
2023/12/06 12:21:19;;;;;;;46.20;29.37;;;3.90;51.40;;;;;;5056985;28;20187;-89
2023/12/06 12:23:48;;;;;;;47.20;28.27;;;3.90;51.30;;;;;;5057458;28;20242;-90
2023/12/06 12:26:16;;;;;;;43.97;28.10;;;3.90;51.30;;;;;;5053251;28;20197;-89
2023/12/06 12:28:42;;;;;;;46.00;29.00;;;3.90;51.30;;;;;;5062620;28;20184;-87
2023/12/06 12:31:13;;;;;;;49.43;30.70;;;4.00;51.30;;;;;;5056391;28;20685;-89